Time;durP1;ratioP1;P1;durP2;ratioP2;P2;SDS_P1;SDS_P2;PMS_P1;PMS_P2;Temp;Humidity;BMP_temperature;BMP_pressure;BME280_temperature;BME280_humidity;BME280_pressure;Samples;Min_cycle;Max_cycle;Signal;HPM_P1;HPM_P2
2022/05/27 00:01:44;;;;;;;9.13;4.22;;;18.80;99.90;;;;;;4756677;30;20039;-86
2022/05/27 00:04:11;;;;;;;11.73;5.20;;;18.80;99.90;;;;;;4756443;30;20040;-86
2022/05/27 00:06:40;;;;;;;9.15;4.50;;;18.70;99.90;;;;;;4756276;30;20142;-85
2022/05/27 00:09:07;;;;;;;8.18;4.22;;;18.70;99.90;;;;;;4756153;30;20040;-87
2022/05/27 00:11:35;;;;;;;11.25;4.38;;;18.60;99.90;;;;;;4757723;30;20056;-86
2022/05/27 00:14:02;;;;;;;12.82;4.47;;;18.60;99.90;;;;;;4774034;30;20512;-85
2022/05/27 00:16:29;;;;;;;7.38;4.00;;;18.50;99.90;;;;;;4759097;30;20039;-87
2022/05/27 00:18:58;;;;;;;11.98;4.75;;;18.50;99.90;;;;;;4758912;30;20046;-85
2022/05/27 00:21:26;;;;;;;9.23;4.38;;;18.50;99.90;;;;;;4773942;30;20549;-86
2022/05/27 00:23:53;;;;;;;7.95;4.65;;;18.50;99.90;;;;;;4773801;30;20046;-85
2022/05/27 00:26:20;;;;;;;6.65;4.35;;;18.50;99.90;;;;;;4758745;30;20076;-86
2022/05/27 00:28:47;;;;;;;7.07;3.60;;;18.40;99.90;;;;;;4773797;30;20095;-85
2022/05/27 00:31:18;;;;;;;7.68;4.45;;;18.40;99.90;;;;;;4773744;30;20027;-87
2022/05/27 00:33:45;;;;;;;5.95;4.10;;;18.40;99.90;;;;;;4773790;30;20092;-86
2022/05/27 00:36:11;;;;;;;14.07;4.35;;;18.40;99.90;;;;;;4758620;30;20130;-86
2022/05/27 00:38:43;;;;;;;9.52;3.70;;;18.30;99.90;;;;;;4773146;30;20482;-86
2022/05/27 00:41:12;;;;;;;10.02;4.50;;;18.40;99.90;;;;;;4773488;30;20047;-85
2022/05/27 00:43:41;;;;;;;6.40;4.40;;;18.30;99.90;;;;;;4773782;30;20085;-86
2022/05/27 00:46:17;;;;;;;8.35;4.00;;;18.30;99.90;;;;;;4758448;30;20035;-86
2022/05/27 00:48:47;;;;;;;8.07;3.83;;;18.30;99.90;;;;;;4773262;30;20039;-87
2022/05/27 00:51:19;;;;;;;7.80;4.57;;;18.30;99.90;;;;;;4758454;30;20125;-87
2022/05/27 00:54:14;;;;;;;11.50;4.35;;;18.20;99.90;;;;;;4773661;30;20038;-86
2022/05/27 00:56:44;;;;;;;12.57;4.40;;;18.20;99.90;;;;;;4761126;30;20066;-86
2022/05/27 00:59:21;;;;;;;8.50;4.22;;;18.20;99.90;;;;;;4773252;30;20402;-87
2022/05/27 01:01:48;;;;;;;8.75;4.70;;;18.10;99.90;;;;;;4773290;30;20051;-86
2022/05/27 01:04:16;;;;;;;7.35;4.35;;;18.10;99.90;;;;;;4758297;30;20050;-86
2022/05/27 01:06:42;;;;;;;12.27;4.82;;;18.00;99.90;;;;;;4758243;30;20437;-86
2022/05/27 01:09:09;;;;;;;7.85;4.07;;;18.00;99.90;;;;;;4756630;30;20402;-86
2022/05/27 01:11:38;;;;;;;11.10;5.00;;;17.90;99.90;;;;;;4758073;30;20486;-87
2022/05/27 01:14:23;;;;;;;10.18;4.38;;;17.80;99.90;;;;;;4773374;30;20048;-86
2022/05/27 01:16:57;;;;;;;10.05;4.50;;;17.80;99.90;;;;;;4773428;30;20071;-86
2022/05/27 01:23:23;;;;;;;9.63;4.93;;;17.80;99.90;;;;;;4773473;30;20095;-86
2022/05/27 01:26:17;;;;;;;11.25;4.40;;;17.80;99.90;;;;;;4773074;30;20118;-87
2022/05/27 01:29:26;;;;;;;7.75;4.40;;;17.80;99.90;;;;;;4773326;30;20035;-85
2022/05/27 01:32:10;;;;;;;13.27;4.82;;;17.80;99.90;;;;;;4704842;30;20079;-87
2022/05/27 01:34:39;;;;;;;;;;;17.80;99.90;;;;;;4734483;30;20032;-85
2022/05/27 01:37:32;;;;;;;9.13;4.70;;;17.70;99.90;;;;;;4719539;30;19955;-88
2022/05/27 01:40:09;;;;;;;8.38;5.55;;;17.70;99.90;;;;;;4685273;30;20040;-85
2022/05/27 01:43:02;;;;;;;9.23;5.05;;;17.60;99.90;;;;;;4719615;30;20101;-86
2022/05/27 01:45:37;;;;;;;8.40;5.07;;;17.60;99.90;;;;;;4704969;30;20033;-87
2022/05/27 01:48:17;;;;;;;9.10;5.03;;;17.60;99.90;;;;;;4719480;30;20040;-88
2022/05/27 01:51:07;;;;;;;9.18;4.90;;;17.70;99.90;;;;;;4721261;30;20050;-85
2022/05/27 01:53:54;;;;;;;12.73;5.63;;;17.80;99.90;;;;;;4708339;30;20045;-86
2022/05/27 01:56:30;;;;;;;11.00;5.15;;;17.80;99.90;;;;;;4737257;30;20143;-86
2022/05/27 01:59:20;;;;;;;13.15;5.68;;;18.00;99.90;;;;;;4708255;30;20056;-86
2022/05/27 02:02:01;;;;;;;9.10;4.82;;;18.00;99.90;;;;;;4731227;30;20138;-86
2022/05/27 02:04:49;;;;;;;8.48;5.07;;;18.00;99.90;;;;;;4776130;30;20557;-86
2022/05/27 02:07:22;;;;;;;11.32;5.05;;;18.00;99.90;;;;;;4761427;30;20166;-86
2022/05/27 02:10:06;;;;;;;13.35;5.22;;;18.00;99.90;;;;;;4761420;30;20035;-85
2022/05/27 02:12:56;;;;;;;10.85;5.20;;;18.00;99.90;;;;;;4754244;30;20059;-88
2022/05/27 02:15:32;;;;;;;8.30;4.65;;;18.10;99.90;;;;;;4758008;30;20039;-87
2022/05/27 02:18:13;;;;;;;8.52;5.20;;;18.10;99.90;;;;;;4743349;30;20035;-86
2022/05/27 02:20:51;;;;;;;9.85;5.88;;;18.20;99.90;;;;;;4758071;30;20040;-86
2022/05/27 02:23:31;;;;;;;8.85;5.13;;;18.20;99.90;;;;;;4758233;30;20038;-86
2022/05/27 02:25:59;;;;;;;8.93;5.03;;;18.20;99.90;;;;;;4758003;30;20077;-87
2022/05/27 02:28:32;;;;;;;7.95;5.10;;;18.20;99.90;;;;;;4743236;30;20521;-87
2022/05/27 02:31:15;;;;;;;8.10;5.00;;;18.20;99.90;;;;;;4743328;30;20032;-86
2022/05/27 02:36:57;;;;;;;9.10;4.82;;;18.20;99.90;;;;;;4758002;30;20036;-87
2022/05/27 02:39:25;;;;;;;8.57;4.65;;;18.10;99.90;;;;;;4758115;30;20044;-87
2022/05/27 02:42:19;;;;;;;12.15;4.93;;;18.00;99.90;;;;;;4757849;30;20486;-85
2022/05/27 02:45:11;;;;;;;10.65;4.93;;;18.00;99.90;;;;;;4757922;30;20073;-86
2022/05/27 02:47:58;;;;;;;9.93;4.57;;;18.00;99.90;;;;;;4757711;30;20054;-86
2022/05/27 02:50:49;;;;;;;11.45;4.95;;;17.90;99.90;;;;;;4742723;30;20036;-85
2022/05/27 02:53:46;;;;;;;7.85;4.35;;;18.00;99.90;;;;;;4757457;30;20096;-86
2022/05/27 02:56:22;;;;;;;10.65;5.15;;;18.00;99.90;;;;;;4757735;30;20032;-84
2022/05/27 02:58:49;;;;;;;7.40;4.95;;;17.90;99.90;;;;;;4757546;30;20093;-87
2022/05/27 03:01:16;;;;;;;9.88;4.90;;;17.80;99.90;;;;;;4757408;30;20084;-85
2022/05/27 03:03:43;;;;;;;9.45;5.20;;;17.80;99.90;;;;;;4756691;30;20032;-86
2022/05/27 03:06:41;;;;;;;12.38;4.68;;;17.70;99.90;;;;;;4757512;30;20097;-87
2022/05/27 03:09:49;;;;;;;11.43;4.80;;;17.70;99.90;;;;;;4757449;30;20035;-86
2022/05/27 03:12:23;;;;;;;10.02;5.10;;;17.70;99.90;;;;;;4757207;30;20048;-85
2022/05/27 03:15:25;;;;;;;9.23;4.72;;;17.70;99.90;;;;;;4757379;30;20048;-86
2022/05/27 03:18:16;;;;;;;8.00;4.80;;;17.70;99.90;;;;;;4757166;30;20048;-86
2022/05/27 03:21:17;;;;;;;11.55;5.47;;;17.80;99.90;;;;;;4757200;30;20035;-85
2022/05/27 03:23:59;;;;;;;10.00;4.72;;;17.80;99.90;;;;;;4757141;30;20092;-86
2022/05/27 03:26:57;;;;;;;7.43;5.10;;;17.90;99.90;;;;;;4757166;30;20502;-85
2022/05/27 03:29:30;;;;;;;12.57;5.40;;;17.90;99.90;;;;;;4757095;30;20043;-86
2022/05/27 03:32:08;;;;;;;9.45;5.07;;;17.80;99.90;;;;;;4757021;30;20108;-85
2022/05/27 03:34:46;;;;;;;8.45;5.22;;;17.80;99.90;;;;;;4756969;30;20040;-86
2022/05/27 03:37:28;;;;;;;8.15;4.85;;;17.70;99.90;;;;;;4756929;30;20040;-86
2022/05/27 03:40:26;;;;;;;11.65;5.50;;;17.70;99.90;;;;;;4756877;30;20043;-84
2022/05/27 03:42:55;;;;;;;13.88;5.10;;;17.80;99.90;;;;;;4752999;30;20078;-86
2022/05/27 03:45:24;;;;;;;9.02;5.40;;;17.80;99.90;;;;;;4756891;30;20031;-86
2022/05/27 03:47:52;;;;;;;11.23;5.78;;;17.80;99.90;;;;;;4756519;30;20088;-88
2022/05/27 03:50:22;;;;;;;7.18;4.85;;;18.00;99.90;;;;;;4756609;30;20036;-85
2022/05/27 03:52:53;;;;;;;11.32;5.30;;;18.10;99.90;;;;;;4756285;30;20547;-84
2022/05/27 03:55:24;;;;;;;11.82;6.10;;;18.30;99.90;;;;;;4741603;30;20490;-84
2022/05/27 03:57:50;;;;;;;9.60;5.10;;;18.40;99.90;;;;;;4756379;30;20032;-83
2022/05/27 04:00:18;;;;;;;10.57;5.57;;;18.50;99.90;;;;;;4756928;30;20422;-84
2022/05/27 04:02:45;;;;;;;10.00;4.97;;;18.70;99.90;;;;;;4772230;30;20083;-84
2022/05/27 04:05:17;;;;;;;8.35;5.03;;;19.00;99.90;;;;;;4756246;30;20123;-84
2022/05/27 04:07:46;;;;;;;7.63;4.97;;;19.20;99.90;;;;;;4756138;30;20120;-84
2022/05/27 04:10:12;;;;;;;10.38;5.40;;;19.40;99.90;;;;;;4771882;30;20070;-84
2022/05/27 04:12:39;;;;;;;10.10;5.47;;;19.70;99.90;;;;;;4755892;30;20051;-84
2022/05/27 04:15:09;;;;;;;8.82;5.72;;;19.90;99.90;;;;;;4755729;30;20027;-85
2022/05/27 04:17:36;;;;;;;12.65;5.95;;;20.10;99.90;;;;;;4755937;30;20055;-84
2022/05/27 04:20:10;;;;;;;15.02;5.90;;;20.30;99.90;;;;;;4755798;30;20063;-83
2022/05/27 04:22:38;;;;;;;28.10;7.45;;;20.70;99.90;;;;;;4755821;30;20121;-84
2022/05/27 04:25:06;;;;;;;37.13;8.00;;;20.80;99.90;;;;;;4756037;30;20027;-84
2022/05/27 04:27:33;;;;;;;31.52;7.88;;;21.00;99.90;;;;;;4755700;30;20050;-84
2022/05/27 04:30:00;;;;;;;36.55;8.55;;;21.20;99.90;;;;;;4755693;30;20031;-84
2022/05/27 04:32:26;;;;;;;40.72;9.55;;;21.40;99.90;;;;;;4755502;30;20151;-84
2022/05/27 04:34:54;;;;;;;44.63;11.13;;;21.70;99.90;;;;;;4770675;30;20034;-85
2022/05/27 04:37:23;;;;;;;60.55;11.02;;;22.10;99.90;;;;;;4755523;30;20051;-85
2022/05/27 04:39:50;;;;;;;60.97;12.48;;;22.40;99.90;;;;;;4755446;30;20039;-85
2022/05/27 04:42:16;;;;;;;78.30;12.57;;;22.80;99.90;;;;;;4755154;30;20039;-84
2022/05/27 04:44:43;;;;;;;68.68;13.90;;;23.20;99.90;;;;;;4754983;30;20032;-85
2022/05/27 04:47:11;;;;;;;79.10;12.43;;;23.70;99.90;;;;;;4770108;30;20498;-85
2022/05/27 04:49:51;;;;;;;70.53;11.93;;;23.90;99.90;;;;;;4755099;30;20115;-85
2022/05/27 04:52:19;;;;;;;55.00;11.70;;;23.90;99.90;;;;;;4754974;30;20578;-85
2022/05/27 04:54:46;;;;;;;52.05;12.02;;;24.00;99.90;;;;;;4755018;30;20440;-85
2022/05/27 04:57:19;;;;;;;55.72;11.43;;;23.90;99.90;;;;;;4755087;30;20042;-86
2022/05/27 04:59:55;;;;;;;44.42;11.02;;;23.80;99.90;;;;;;4755045;30;20036;-86
2022/05/27 05:02:23;;;;;;;54.95;11.70;;;23.80;99.90;;;;;;4755467;30;20479;-86
2022/05/27 05:04:53;;;;;;;43.65;13.20;;;24.30;99.90;;;;;;4755594;30;20062;-86
2022/05/27 05:07:23;;;;;;;28.65;12.18;;;24.90;99.90;;;;;;4755637;30;20096;-88
2022/05/27 05:09:53;;;;;;;49.50;12.67;;;25.30;99.90;;;;;;4756023;30;20115;-87
2022/05/27 05:12:22;;;;;;;54.08;11.60;;;26.10;99.90;;;;;;4752165;30;20063;-88
2022/05/27 05:14:53;;;;;;;45.53;12.25;;;26.30;99.90;;;;;;4755697;30;20039;-88
2022/05/27 05:17:21;;;;;;;34.55;11.02;;;26.80;99.90;;;;;;4755331;30;20036;-88
2022/05/27 05:19:53;;;;;;;28.25;9.52;;;27.50;99.90;;;;;;4755443;30;20111;-88
2022/05/27 05:22:26;;;;;;;29.50;10.23;;;27.70;99.90;;;;;;4755357;30;20035;-88
2022/05/27 05:24:56;;;;;;;28.90;9.70;;;28.20;99.90;;;;;;4741543;30;20032;-90
2022/05/27 05:27:26;;;;;;;24.50;9.63;;;28.90;99.90;;;;;;4761453;30;20054;-88
2022/05/27 05:29:55;;;;;;;22.63;10.43;;;29.40;99.90;;;;;;4762695;30;20032;-87
2022/05/27 05:32:32;;;;;;;19.73;9.55;;;29.80;99.90;;;;;;4761645;30;20031;-93
2022/05/27 05:35:16;;;;;;;24.52;9.73;;;29.90;99.90;;;;;;4761138;30;20398;-91
2022/05/27 05:37:43;;;;;;;18.63;10.32;;;30.50;99.90;;;;;;4761502;30;20039;-91
2022/05/27 05:40:12;;;;;;;15.57;9.32;;;30.80;99.90;;;;;;4761099;30;20079;-91
2022/05/27 05:42:39;;;;;;;15.70;9.15;;;31.30;99.90;;;;;;4762253;30;20122;-91
2022/05/27 05:45:20;;;;;;;20.55;9.40;;;31.30;99.90;;;;;;4761124;30;20081;-91
2022/05/27 05:47:47;;;;;;;13.88;9.25;;;31.60;99.90;;;;;;4761285;30;20054;-92
2022/05/27 05:50:16;;;;;;;12.50;8.52;;;31.80;99.90;;;;;;4760711;30;20035;-91
2022/05/27 05:53:02;;;;;;;15.38;8.52;;;31.30;99.90;;;;;;4745473;30;20066;-92
2022/05/27 05:55:31;;;;;;;17.92;8.07;;;31.20;99.90;;;;;;4761228;30;20114;-91
2022/05/27 05:58:05;;;;;;;11.10;8.70;;;30.30;99.90;;;;;;4761270;30;20043;-93
2022/05/27 06:00:32;;;;;;;10.65;8.63;;;29.60;99.90;;;;;;4760923;30;20043;-92
2022/05/27 06:02:58;;;;;;;9.45;8.15;;;29.60;99.90;;;;;;4761578;30;20036;-93
2022/05/27 06:05:25;;;;;;;18.92;9.20;;;29.40;99.90;;;;;;4761351;30;20042;-90
2022/05/27 06:08:03;;;;;;;13.13;8.23;;;29.60;99.90;;;;;;4761302;30;20044;-91
2022/05/27 06:10:30;;;;;;;18.23;8.93;;;30.10;99.90;;;;;;4760976;30;20103;-91
2022/05/27 06:12:58;;;;;;;16.77;8.27;;;30.30;99.90;;;;;;4761092;30;20052;-91
2022/05/27 06:15:24;;;;;;;14.35;7.80;;;29.30;99.90;;;;;;4761115;30;20562;-90
2022/05/27 06:17:51;;;;;;;13.27;7.75;;;29.00;99.90;;;;;;4760115;30;20031;-90
2022/05/27 06:20:18;;;;;;;10.07;8.18;;;28.70;99.90;;;;;;4760153;30;20486;-89
2022/05/27 06:22:45;;;;;;;14.88;8.52;;;28.30;99.90;;;;;;4759857;30;20036;-90
2022/05/27 06:25:12;;;;;;;17.25;8.50;;;28.40;99.90;;;;;;4761899;30;20043;-88
2022/05/27 06:27:39;;;;;;;19.88;9.60;;;28.60;99.90;;;;;;4759967;30;20048;-87
2022/05/27 06:35:20;;;;;;;13.25;9.95;;;29.60;99.90;;;;;;4759194;30;20040;-77
2022/05/27 06:37:46;;;;;;;13.48;9.68;;;30.30;99.90;;;;;;4770360;30;20410;-77
2022/05/27 06:40:13;;;;;;;13.77;10.27;;;31.00;99.90;;;;;;4771875;30;20032;-77
2022/05/27 06:42:40;;;;;;;13.35;10.35;;;31.80;99.90;;;;;;4771888;30;20040;-77
2022/05/27 06:45:10;;;;;;;11.15;9.00;;;32.40;99.90;;;;;;4772295;30;20065;-87
2022/05/27 06:47:37;;;;;;;17.00;9.63;;;33.40;99.90;;;;;;4756601;30;20044;-89
2022/05/27 06:50:06;;;;;;;14.13;9.60;;;32.50;99.90;;;;;;4757439;30;20024;-91
2022/05/27 06:52:33;;;;;;;18.42;9.98;;;32.90;99.90;;;;;;4756672;30;20509;-91
2022/05/27 06:55:00;;;;;;;16.75;10.60;;;32.90;99.90;;;;;;4756676;30;20485;-91
2022/05/27 06:57:26;;;;;;;14.90;10.13;;;33.50;99.90;;;;;;4756621;30;20036;-91
2022/05/27 06:59:53;;;;;;;16.90;11.07;;;34.50;99.90;;;;;;4756670;30;20093;-92
2022/05/27 07:02:22;;;;;;;15.50;11.27;;;34.20;99.90;;;;;;4756461;30;20032;-93
2022/05/27 07:04:49;;;;;;;16.75;11.70;;;34.50;99.90;;;;;;4756460;30;20059;-90
2022/05/27 07:07:16;;;;;;;13.27;10.63;;;34.90;99.90;;;;;;4739663;30;20039;-91
2022/05/27 07:09:43;;;;;;;14.75;11.25;;;35.10;99.90;;;;;;4757078;30;20035;-90
2022/05/27 07:12:15;;;;;;;11.65;10.57;;;35.80;99.90;;;;;;4691611;30;1962450;-92
2022/05/27 07:14:44;;;;;;;15.52;10.30;;;35.70;99.50;;;;;;4772218;30;20044;-91
2022/05/27 07:17:11;;;;;;;18.15;9.35;;;35.10;99.70;;;;;;4757224;30;20122;-91
2022/05/27 07:20:18;;;;;;;17.50;9.93;;;34.50;99.90;;;;;;4757571;30;20036;-92
2022/05/27 07:26:14;;;;;;;14.38;8.98;;;33.70;99.90;;;;;;5327146;24;20047;-89
2022/05/27 11:07:15;;;;;;;10.15;6.40;;;31.10;99.90;;;;;;5201130;24;20055;-92
2022/05/27 11:10:44;;;;;;;9.02;6.43;;;31.10;99.90;;;;;;4795498;24;20055;-94
2022/05/27 11:19:18;;;;;;;9.05;7.97;;;31.00;99.90;;;;;;4860867;24;20489;-93
2022/05/27 11:35:29;;;;;;;8.25;7.65;;;31.00;99.50;;;;;;5275190;24;20055;-94
2022/05/27 11:38:52;;;;;;;13.02;8.70;;;30.60;99.90;;;;;;4756527;30;20061;-95
2022/05/27 11:41:27;;;;;;;11.25;8.00;;;30.70;99.10;;;;;;4743544;29;20048;-92
2022/05/27 11:44:15;;;;;;;9.70;8.48;;;31.00;98.90;;;;;;4727602;30;20063;-94
2022/05/27 11:47:05;;;;;;;8.02;6.72;;;30.80;99.20;;;;;;4727725;30;20078;-93
2022/05/27 11:54:25;;;;;;;11.73;7.72;;;31.00;99.30;;;;;;4705455;30;20046;-94
2022/05/27 12:01:25;;;;;;;9.00;8.18;;;31.30;98.40;;;;;;4626136;31;20076;-94
2022/05/27 12:04:32;;;;;;;8.77;7.90;;;31.30;98.10;;;;;;4627301;31;20132;-94
